Time;durP1;ratioP1;P1;durP2;ratioP2;P2;SDS_P1;SDS_P2;PMS_P1;PMS_P2;Temp;Humidity;BMP_temperature;BMP_pressure;BME280_temperature;BME280_humidity;BME280_pressure;Samples;Min_cycle;Max_cycle;Signal;HPM_P1;HPM_P2
2022/10/09 00:00:40;;;;;;;20.42;9.18;;;;;;;;;;6168819;28;20495;-65
2022/10/09 00:04:00;;;;;;;21.77;10.23;;;;;;;;;;6167927;28;20495;-67
2022/10/09 00:07:01;;;;;;;23.52;9.10;;;;;;;;;;6166631;28;20053;-59
2022/10/09 00:10:02;;;;;;;21.40;8.93;;;;;;;;;;6168611;28;20456;-65
2022/10/09 00:13:03;;;;;;;22.45;9.43;;;;;;;;;;6167113;28;20071;-63
2022/10/09 00:16:06;;;;;;;19.42;8.68;;;;;;;;;;6166509;28;20051;-67
2022/10/09 00:19:07;;;;;;;23.40;8.20;;;;;;;;;;6167861;28;20070;-62
2022/10/09 00:22:08;;;;;;;23.60;8.30;;;;;;;;;;6178522;28;20046;-65
2022/10/09 00:25:08;;;;;;;20.45;8.68;;;;;;;;;;6161771;28;20078;-69
2022/10/09 00:28:09;;;;;;;23.20;8.13;;;;;;;;;;6167222;28;20141;-68
2022/10/09 00:31:11;;;;;;;19.33;8.45;;;;;;;;;;6167011;28;20077;-62
2022/10/09 00:34:11;;;;;;;21.83;7.72;;;;;;;;;;6168615;28;20047;-63
2022/10/09 00:37:12;;;;;;;17.40;7.88;;;;;;;;;;6164988;28;20074;-65
2022/10/09 00:40:14;;;;;;;18.42;7.78;;;;;;;;;;6162313;28;20696;-63
2022/10/09 00:43:18;;;;;;;18.23;7.75;;;;;;;;;;6161999;28;20507;-67
2022/10/09 00:46:44;;;;;;;18.55;6.57;;;;;;;;;;6157836;28;20046;-64
2022/10/09 00:49:46;;;;;;;21.45;6.90;;;;;;;;;;6161491;28;20038;-69
2022/10/09 00:52:49;;;;;;;;;;;;;;;;;;6163537;28;20623;-65
2022/10/09 00:55:49;;;;;;;20.40;8.27;;;;;;;;;;6159114;28;19925;-68
2022/10/09 00:58:55;;;;;;;18.92;7.28;;;;;;;;;;6166885;28;20054;-63
2022/10/09 01:01:56;;;;;;;22.63;8.65;;;;;;;;;;6163006;28;20074;-68
2022/10/09 01:04:56;;;;;;;18.13;7.70;;;;;;;;;;6161583;28;20059;-60
2022/10/09 01:08:03;;;;;;;23.60;8.82;;;;;;;;;;6167005;28;20058;-60
2022/10/09 01:11:42;;;;;;;25.23;9.23;;;;;;;;;;6161456;28;20129;-60
2022/10/09 01:15:21;;;;;;;24.08;9.63;;;;;;;;;;6160645;28;20059;-61
2022/10/09 01:18:39;;;;;;;17.27;8.23;;;;;;;;;;6162919;28;20794;-69
2022/10/09 01:22:21;;;;;;;20.48;8.20;;;;;;;;;;6161161;28;20065;-67
2022/10/09 01:25:34;;;;;;;26.08;8.55;;;;;;;;;;6147301;28;20043;-62
2022/10/09 01:28:37;;;;;;;19.58;8.45;;;;;;;;;;6160407;28;20054;-67
2022/10/09 01:31:45;;;;;;;18.40;7.10;;;;;;;;;;6169766;28;20635;-67
2022/10/09 01:34:47;;;;;;;18.23;8.32;;;;;;;;;;6165381;28;20138;-69
2022/10/09 01:37:50;;;;;;;18.83;7.63;;;;;;;;;;6164625;28;20531;-61
2022/10/09 01:40:52;;;;;;;16.83;7.90;;;;;;;;;;6164793;28;20057;-63
2022/10/09 01:43:53;;;;;;;15.32;7.10;;;;;;;;;;6165408;28;20145;-70
2022/10/09 01:46:54;;;;;;;18.85;7.13;;;;;;;;;;6163551;28;20061;-62
2022/10/09 01:50:01;;;;;;;13.25;7.57;;;;;;;;;;6170597;28;20062;-70
2022/10/09 01:53:09;;;;;;;20.60;7.30;;;;;;;;;;6167156;28;20709;-68
2022/10/09 01:56:19;;;;;;;20.52;7.60;;;;;;;;;;6165103;28;20137;-67
2022/10/09 01:59:22;;;;;;;20.10;8.05;;;;;;;;;;6164257;28;20043;-67
2022/10/09 02:02:23;;;;;;;19.20;7.55;;;;;;;;;;6163671;28;20403;-68
2022/10/09 02:05:26;;;;;;;17.80;7.47;;;;;;;;;;6170094;28;20043;-68
2022/10/09 02:08:29;;;;;;;18.92;7.25;;;;;;;;;;6165947;28;20142;-70
2022/10/09 02:11:32;;;;;;;17.98;7.63;;;;;;;;;;6165116;28;20050;-69
2022/10/09 02:14:33;;;;;;;22.77;8.32;;;;;;;;;;6164986;28;20141;-66
2022/10/09 02:17:38;;;;;;;22.10;8.88;;;;;;;;;;6166650;28;20085;-67
2022/10/09 02:20:46;;;;;;;21.95;9.50;;;;;;;;;;6165462;28;20128;-64
2022/10/09 02:23:48;;;;;;;31.95;12.25;;;;;;;;;;6165106;28;20081;-69
2022/10/09 02:26:52;;;;;;;26.65;11.35;;;;;;;;;;6164182;28;20070;-69
2022/10/09 02:29:53;;;;;;;27.38;12.73;;;;;;;;;;6161953;28;20415;-68
2022/10/09 02:32:54;;;;;;;31.98;11.82;;;;;;;;;;6164778;28;20050;-62
2022/10/09 02:35:54;;;;;;;22.73;11.35;;;;;;;;;;6164356;28;20039;-64
2022/10/09 02:38:57;;;;;;;31.13;11.75;;;;;;;;;;6164386;28;20042;-69
2022/10/09 02:41:57;;;;;;;30.58;12.07;;;;;;;;;;6163015;28;20047;-65
2022/10/09 02:44:58;;;;;;;32.25;12.68;;;;;;;;;;6163847;28;20090;-70
2022/10/09 02:47:58;;;;;;;27.42;11.55;;;;;;;;;;6163756;28;20050;-69
2022/10/09 02:51:00;;;;;;;29.20;11.45;;;;;;;;;;6161738;28;20642;-66
2022/10/09 02:54:00;;;;;;;26.98;10.70;;;;;;;;;;6162808;28;20034;-65
2022/10/09 02:57:02;;;;;;;32.30;10.27;;;;;;;;;;6162972;28;20051;-68
2022/10/09 03:00:03;;;;;;;31.33;11.15;;;;;;;;;;6165396;28;20057;-68
2022/10/09 03:03:04;;;;;;;22.08;10.48;;;;;;;;;;6163569;28;20053;-70
2022/10/09 03:06:10;;;;;;;26.25;10.40;;;;;;;;;;6169682;28;20478;-63
2022/10/09 03:09:11;;;;;;;27.95;10.52;;;;;;;;;;6168258;28;20074;-67
2022/10/09 03:12:14;;;;;;;25.25;11.30;;;;;;;;;;6162540;28;20498;-64
2022/10/09 03:15:15;;;;;;;26.55;10.32;;;;;;;;;;6164877;28;20042;-69
2022/10/09 03:18:16;;;;;;;25.92;9.88;;;;;;;;;;6162399;28;20613;-69
2022/10/09 03:21:19;;;;;;;24.83;10.32;;;;;;;;;;6162131;28;20043;-61
2022/10/09 03:24:20;;;;;;;28.88;10.18;;;;;;;;;;6163042;28;20051;-67
2022/10/09 03:27:20;;;;;;;23.40;10.38;;;;;;;;;;6166082;28;20098;-66
2022/10/09 03:30:21;;;;;;;20.55;9.95;;;;;;;;;;6164692;28;20050;-64
2022/10/09 03:33:22;;;;;;;30.10;12.02;;;;;;;;;;6163452;28;20042;-66
2022/10/09 03:36:22;;;;;;;35.78;11.40;;;;;;;;;;6163375;28;20399;-60
2022/10/09 03:39:23;;;;;;;31.15;12.38;;;;;;;;;;6164711;28;20042;-66
2022/10/09 03:42:23;;;;;;;28.90;11.38;;;;;;;;;;6164742;28;20181;-66
2022/10/09 03:45:24;;;;;;;29.60;11.13;;;;;;;;;;6162861;28;20525;-69
2022/10/09 03:48:25;;;;;;;29.83;11.20;;;;;;;;;;6164916;28;20873;-66
2022/10/09 03:51:25;;;;;;;24.17;11.38;;;;;;;;;;6165266;28;20051;-65
2022/10/09 03:54:26;;;;;;;28.27;10.85;;;;;;;;;;6165403;28;20058;-69
2022/10/09 03:57:26;;;;;;;25.85;10.32;;;;;;;;;;6165200;28;20864;-70
2022/10/09 04:00:27;;;;;;;23.73;10.27;;;;;;;;;;6162800;28;20138;-66
2022/10/09 04:03:28;;;;;;;26.70;10.00;;;;;;;;;;6164063;28;20047;-62
2022/10/09 04:06:28;;;;;;;23.10;10.60;;;;;;;;;;6165590;28;20490;-65
2022/10/09 04:09:29;;;;;;;22.40;10.63;;;;;;;;;;6162232;28;20109;-69
2022/10/09 04:12:29;;;;;;;25.40;10.27;;;;;;;;;;6163694;28;20038;-69
2022/10/09 04:15:30;;;;;;;34.55;12.30;;;;;;;;;;6162866;28;20054;-62
2022/10/09 04:18:30;;;;;;;26.02;11.57;;;;;;;;;;6162694;28;20043;-68
2022/10/09 04:21:32;;;;;;;23.90;10.70;;;;;;;;;;6165538;28;20094;-67
2022/10/09 04:24:33;;;;;;;27.05;10.93;;;;;;;;;;6169183;28;20061;-65
2022/10/09 04:27:33;;;;;;;27.83;11.70;;;;;;;;;;6168433;28;20055;-69
2022/10/09 04:30:34;;;;;;;26.92;11.60;;;;;;;;;;6165364;28;20391;-67
2022/10/09 04:33:34;;;;;;;25.38;10.73;;;;;;;;;;6161647;28;20526;-61
2022/10/09 04:36:35;;;;;;;25.73;10.45;;;;;;;;;;6144273;28;20762;-68
2022/10/09 04:39:35;;;;;;;30.02;11.27;;;;;;;;;;6159601;28;20062;-66
2022/10/09 04:42:36;;;;;;;28.70;11.77;;;;;;;;;;6161963;28;20035;-62
2022/10/09 04:45:39;;;;;;;27.70;11.77;;;;;;;;;;6159535;28;20047;-65
2022/10/09 04:48:42;;;;;;;28.10;10.75;;;;;;;;;;6159577;28;20046;-69
2022/10/09 04:51:44;;;;;;;25.88;11.70;;;;;;;;;;6159751;28;20055;-62
2022/10/09 04:54:44;;;;;;;29.50;11.23;;;;;;;;;;6162952;28;20039;-61
2022/10/09 04:57:45;;;;;;;26.15;11.52;;;;;;;;;;6160937;28;20057;-68
2022/10/09 05:00:46;;;;;;;29.05;12.48;;;;;;;;;;6163099;28;20610;-68
2022/10/09 05:03:47;;;;;;;34.70;14.60;;;;;;;;;;6162264;28;20050;-64
2022/10/09 05:06:48;;;;;;;36.80;15.98;;;;;;;;;;6160924;28;20073;-62
2022/10/09 05:09:49;;;;;;;36.20;16.23;;;;;;;;;;6161100;28;20050;-68
2022/10/09 05:12:49;;;;;;;32.85;14.55;;;;;;;;;;6165823;28;20042;-67
2022/10/09 05:15:50;;;;;;;37.28;15.27;;;;;;;;;;6161349;28;20047;-65
2022/10/09 05:18:53;;;;;;;41.10;15.30;;;;;;;;;;6162749;28;20138;-66
2022/10/09 05:21:53;;;;;;;36.45;14.45;;;;;;;;;;6161482;28;20035;-68
2022/10/09 05:24:54;;;;;;;40.53;13.68;;;;;;;;;;6161349;28;20058;-65
2022/10/09 05:27:54;;;;;;;33.35;12.18;;;;;;;;;;6160033;28;20093;-69
2022/10/09 05:30:55;;;;;;;33.00;12.23;;;;;;;;;;6163456;28;20491;-69
2022/10/09 05:33:58;;;;;;;28.20;10.93;;;;;;;;;;6159651;28;20130;-66
2022/10/09 05:36:58;;;;;;;28.67;11.00;;;;;;;;;;6166891;28;20050;-61
2022/10/09 05:39:59;;;;;;;25.80;10.82;;;;;;;;;;6162689;28;20078;-68
2022/10/09 05:42:59;;;;;;;25.80;10.85;;;;;;;;;;6159367;28;20142;-62
2022/10/09 05:46:11;;;;;;;26.83;11.05;;;;;;;;;;6159185;28;20058;-65
2022/10/09 05:49:12;;;;;;;28.23;10.70;;;;;;;;;;6160336;28;20053;-63
2022/10/09 05:52:12;;;;;;;24.80;10.52;;;;;;;;;;6160734;28;20379;-67
2022/10/09 05:55:13;;;;;;;22.88;10.88;;;;;;;;;;6161283;28;20051;-66
2022/10/09 05:58:13;;;;;;;27.85;12.52;;;;;;;;;;6159871;28;20463;-66
2022/10/09 06:01:14;;;;;;;28.90;11.18;;;;;;;;;;6160319;28;20050;-66
2022/10/09 06:04:18;;;;;;;34.55;12.07;;;;;;;;;;6160129;28;20150;-64
2022/10/09 06:07:18;;;;;;;26.77;11.38;;;;;;;;;;6157700;28;20471;-64
2022/10/09 06:10:19;;;;;;;33.70;13.27;;;;;;;;;;6158279;28;20150;-65
2022/10/09 06:13:19;;;;;;;25.80;12.02;;;;;;;;;;6159791;28;20054;-61
2022/10/09 06:16:23;;;;;;;32.40;13.07;;;;;;;;;;6163253;28;20070;-67
2022/10/09 06:19:24;;;;;;;32.58;13.15;;;;;;;;;;6164330;28;20074;-60
2022/10/09 06:22:25;;;;;;;33.00;13.07;;;;;;;;;;6164057;28;20070;-61
2022/10/09 06:25:25;;;;;;;33.75;13.85;;;;;;;;;;6164437;28;20043;-63
2022/10/09 06:28:30;;;;;;;26.65;11.63;;;;;;;;;;6168338;28;20185;-66
2022/10/09 06:31:32;;;;;;;36.70;13.50;;;;;;;;;;6168697;28;20057;-63
2022/10/09 06:34:32;;;;;;;;;;;;;;;;;;6170518;28;20134;-64
2022/10/09 06:37:33;;;;;;;34.03;13.38;;;;;;;;;;6171878;28;19922;-64
2022/10/09 06:40:35;;;;;;;34.90;14.23;;;;;;;;;;6169894;28;20083;-65
2022/10/09 06:43:36;;;;;;;37.33;14.48;;;;;;;;;;6175679;28;20058;-61
2022/10/09 06:46:40;;;;;;;38.42;16.40;;;;;;;;;;6173145;28;20142;-67
2022/10/09 06:49:40;;;;;;;37.05;14.95;;;;;;;;;;6172490;28;20415;-60
2022/10/09 06:52:41;;;;;;;38.17;15.32;;;;;;;;;;6193775;28;20142;-65
2022/10/09 06:55:51;;;;;;;32.90;13.90;;;;;;;;;;6193961;28;20038;-64
2022/10/09 06:58:52;;;;;;;40.10;16.70;;;;;;;;;;6192892;28;20520;-61
2022/10/09 07:01:52;;;;;;;41.33;16.45;;;;;;;;;;6170198;28;20051;-66
2022/10/09 07:04:53;;;;;;;40.92;16.80;;;;;;;;;;6193012;28;20042;-66
2022/10/09 07:07:53;;;;;;;39.10;15.90;;;;;;;;;;6194734;28;20515;-65
2022/10/09 07:10:54;;;;;;;44.60;16.30;;;;;;;;;;6186134;28;20047;-61
2022/10/09 07:13:58;;;;;;;43.78;17.30;;;;;;;;;;6194991;28;20039;-60
2022/10/09 07:16:58;;;;;;;49.58;18.92;;;;;;;;;;6194535;28;20140;-66
2022/10/09 07:19:59;;;;;;;54.83;20.42;;;;;;;;;;6193082;28;20050;-66
2022/10/09 07:22:59;;;;;;;59.25;22.33;;;;;;;;;;6194264;28;20494;-65
2022/10/09 07:26:01;;;;;;;54.75;21.42;;;;;;;;;;6194043;28;20050;-64
2022/10/09 07:29:04;;;;;;;54.80;20.15;;;;;;;;;;6192259;28;20141;-61
2022/10/09 07:32:04;;;;;;;48.80;19.52;;;;;;;;;;6179611;28;20100;-67
2022/10/09 07:35:06;;;;;;;41.85;17.92;;;;;;;;;;6171554;28;20051;-66
2022/10/09 07:38:07;;;;;;;43.20;16.80;;;;;;;;;;6172256;28;20055;-66
2022/10/09 07:41:10;;;;;;;46.28;17.52;;;;;;;;;;6192730;28;20556;-64
2022/10/09 07:44:11;;;;;;;38.72;15.40;;;;;;;;;;6193863;28;20074;-62
2022/10/09 07:47:11;;;;;;;32.75;14.68;;;;;;;;;;6193828;28;20047;-70
2022/10/09 07:50:12;;;;;;;34.17;14.75;;;;;;;;;;6192152;28;20144;-68
2022/10/09 07:53:12;;;;;;;36.03;14.93;;;;;;;;;;6188382;28;20073;-69
2022/10/09 07:56:21;;;;;;;35.65;14.35;;;;;;;;;;6167436;28;20057;-65
2022/10/09 07:59:22;;;;;;;34.55;13.13;;;;;;;;;;6170829;28;20050;-67
2022/10/09 08:02:22;;;;;;;31.13;13.60;;;;;;;;;;6185555;28;20078;-59
2022/10/09 08:05:23;;;;;;;36.35;14.52;;;;;;;;;;6180670;28;20046;-71
2022/10/09 08:08:23;;;;;;;30.88;14.25;;;;;;;;;;6183989;28;20047;-64
2022/10/09 08:11:26;;;;;;;29.83;13.20;;;;;;;;;;6167602;28;20042;-69
2022/10/09 08:14:27;;;;;;;31.20;13.50;;;;;;;;;;6169343;28;20050;-68
2022/10/09 08:17:27;;;;;;;28.95;12.05;;;;;;;;;;6168199;28;20051;-64
2022/10/09 08:20:28;;;;;;;29.48;13.27;;;;;;;;;;6167227;28;20093;-71
2022/10/09 08:23:28;;;;;;;34.50;14.55;;;;;;;;;;6168557;28;20093;-69
2022/10/09 08:26:30;;;;;;;29.20;13.50;;;;;;;;;;6167766;28;20442;-68
2022/10/09 08:29:31;;;;;;;36.13;14.23;;;;;;;;;;6167803;28;20106;-75
2022/10/09 08:32:32;;;;;;;33.38;12.77;;;;;;;;;;6173142;28;20053;-69
2022/10/09 08:35:33;;;;;;;34.90;13.18;;;;;;;;;;6162695;28;20406;-69
2022/10/09 08:38:34;;;;;;;40.78;16.33;;;;;;;;;;6166366;28;20039;-73
2022/10/09 08:41:46;;;;;;;38.67;17.48;;;;;;;;;;6166938;28;20138;-63
2022/10/09 08:44:48;;;;;;;41.47;15.27;;;;;;;;;;6177182;28;20043;-61
2022/10/09 08:48:03;;;;;;;41.58;17.77;;;;;;;;;;6163776;28;20055;-62
2022/10/09 08:51:08;;;;;;;29.13;13.48;;;;;;;;;;6169850;28;20055;-60
2022/10/09 08:54:18;;;;;;;32.70;14.88;;;;;;;;;;6166998;28;20070;-67
2022/10/09 08:57:20;;;;;;;37.17;17.50;;;;;;;;;;6165910;28;20093;-63
2022/10/09 09:00:26;;;;;;;47.72;18.83;;;;;;;;;;6168376;28;20031;-64
2022/10/09 09:03:45;;;;;;;43.78;17.85;;;;;;;;;;6166634;28;20454;-63
2022/10/09 09:06:58;;;;;;;37.28;16.52;;;;;;;;;;6168441;28;20137;-69
2022/10/09 09:10:09;;;;;;;39.50;15.07;;;;;;;;;;6168274;28;20057;-63
2022/10/09 09:13:25;;;;;;;38.53;17.58;;;;;;;;;;6174309;28;20409;-62
2022/10/09 09:16:39;;;;;;;34.92;15.48;;;;;;;;;;6163475;28;21040;-65
2022/10/09 09:20:08;;;;;;;32.15;15.35;;;;;;;;;;6161953;28;20052;-62
2022/10/09 09:23:14;;;;;;;39.42;14.73;;;;;;;;;;6159227;28;20049;-61
2022/10/09 09:26:18;;;;;;;24.90;13.13;;;;;;;;;;6161558;28;20137;-65
2022/10/09 09:29:24;;;;;;;35.38;14.18;;;;;;;;;;6153504;28;20047;-68
2022/10/09 09:32:27;;;;;;;38.45;15.20;;;;;;;;;;6160723;28;20410;-67
2022/10/09 09:35:59;;;;;;;37.55;16.17;;;;;;;;;;6162959;28;20102;-64
2022/10/09 09:38:59;;;;;;;40.67;16.90;;;;;;;;;;6160490;28;20051;-65
2022/10/09 09:42:11;;;;;;;35.10;16.30;;;;;;;;;;6162262;28;20074;-68
2022/10/09 09:45:18;;;;;;;37.75;16.05;;;;;;;;;;6160994;28;20165;-66
2022/10/09 09:48:31;;;;;;;41.97;16.65;;;;;;;;;;6165923;28;20059;-68
2022/10/09 09:51:34;;;;;;;36.40;15.15;;;;;;;;;;6163818;28;20070;-68
2022/10/09 09:54:38;;;;;;;36.63;14.70;;;;;;;;;;6165403;28;20039;-63
2022/10/09 09:57:43;;;;;;;32.15;14.52;;;;;;;;;;6165532;28;20070;-63
2022/10/09 10:00:59;;;;;;;35.30;13.55;;;;;;;;;;6164301;28;20616;-68
2022/10/09 10:04:03;;;;;;;32.00;13.35;;;;;;;;;;6162921;28;20062;-66
2022/10/09 10:07:04;;;;;;;29.38;12.77;;;;;;;;;;6165036;28;20043;-68
2022/10/09 10:10:08;;;;;;;;;;;;;;;;;;6166425;28;20074;-67
2022/10/09 10:13:15;;;;;;;30.10;13.07;;;;;;;;;;6161621;28;19933;-66
2022/10/09 10:16:23;;;;;;;31.08;12.85;;;;;;;;;;6163843;28;20097;-62
2022/10/09 10:19:26;;;;;;;27.73;12.73;;;;;;;;;;6163404;28;20051;-67
2022/10/09 10:22:34;;;;;;;22.95;9.57;;;;;;;;;;6167532;28;20081;-66
2022/10/09 10:25:35;;;;;;;24.90;11.05;;;;;;;;;;6166657;28;20414;-67
2022/10/09 10:29:11;;;;;;;28.23;11.88;;;;;;;;;;6168914;28;20046;-63
2022/10/09 10:32:14;;;;;;;23.15;10.93;;;;;;;;;;6164299;28;20401;-65
2022/10/09 10:35:22;;;;;;;19.80;9.32;;;;;;;;;;6164145;28;20410;-66
2022/10/09 10:38:32;;;;;;;22.73;9.35;;;;;;;;;;6169130;28;20147;-63
2022/10/09 10:41:44;;;;;;;27.10;11.38;;;;;;;;;;6162861;28;20145;-66
2022/10/09 10:45:02;;;;;;;22.38;10.32;;;;;;;;;;6165347;28;20073;-64
2022/10/09 10:48:08;;;;;;;22.25;10.73;;;;;;;;;;6161298;28;20074;-63
2022/10/09 10:51:29;;;;;;;23.80;9.98;;;;;;;;;;6151071;28;20526;-67
2022/10/09 10:54:44;;;;;;;19.35;7.82;;;;;;;;;;6164378;28;20089;-67
2022/10/09 10:57:59;;;;;;;21.73;8.32;;;;;;;;;;6162612;28;20752;-64
2022/10/09 11:01:09;;;;;;;19.35;8.00;;;;;;;;;;6163098;28;20047;-64
2022/10/09 11:04:32;;;;;;;15.45;7.82;;;;;;;;;;6163377;28;20035;-65
2022/10/09 11:07:48;;;;;;;18.42;9.75;;;;;;;;;;6160524;28;20150;-62
2022/10/09 11:10:58;;;;;;;18.63;9.55;;;;;;;;;;6166037;28;20094;-64
2022/10/09 11:14:07;;;;;;;19.92;9.65;;;;;;;;;;6166208;28;20174;-62
2022/10/09 11:17:43;;;;;;;19.77;9.25;;;;;;;;;;6165521;28;20043;-65
2022/10/09 11:20:46;;;;;;;14.60;6.32;;;;;;;;;;6164628;28;20078;-66
2022/10/09 11:24:22;;;;;;;13.35;5.68;;;;;;;;;;6163535;28;20050;-62
2022/10/09 11:27:48;;;;;;;13.98;6.45;;;;;;;;;;6161707;28;20046;-68
2022/10/09 11:31:01;;;;;;;16.42;7.07;;;;;;;;;;6164795;28;20495;-64
2022/10/09 11:34:11;;;;;;;19.05;7.78;;;;;;;;;;6162765;28;20357;-65
2022/10/09 11:37:21;;;;;;;18.67;7.50;;;;;;;;;;6167123;28;20046;-60
2022/10/09 11:40:26;;;;;;;11.90;7.13;;;;;;;;;;6165608;28;20141;-65
2022/10/09 11:43:46;;;;;;;17.90;7.07;;;;;;;;;;6163038;28;20042;-64
2022/10/09 11:46:53;;;;;;;11.85;5.18;;;;;;;;;;6169578;28;20154;-62
2022/10/09 11:50:13;;;;;;;12.45;5.95;;;;;;;;;;6163510;28;20050;-64
2022/10/09 11:53:20;;;;;;;13.25;5.70;;;;;;;;;;6163498;28;20058;-66
2022/10/09 11:56:27;;;;;;;15.40;5.60;;;;;;;;;;6160525;28;20047;-67
2022/10/09 11:59:30;;;;;;;11.35;5.50;;;;;;;;;;6161006;28;20429;-67
2022/10/09 12:02:31;;;;;;;10.70;5.55;;;;;;;;;;6162788;28;20051;-67
2022/10/09 12:05:41;;;;;;;20.67;7.32;;;;;;;;;;6164054;28;20483;-67
2022/10/09 12:08:53;;;;;;;9.95;5.80;;;;;;;;;;6164264;28;20055;-67
2022/10/09 12:11:58;;;;;;;14.23;5.80;;;;;;;;;;6161319;28;20057;-67
2022/10/09 12:15:10;;;;;;;12.65;6.15;;;;;;;;;;6162869;28;20450;-66
2022/10/09 12:18:18;;;;;;;11.77;5.63;;;;;;;;;;6164991;28;20173;-61
2022/10/09 12:21:26;;;;;;;9.15;4.70;;;;;;;;;;6161914;28;20054;-66
2022/10/09 12:24:36;;;;;;;11.32;5.45;;;;;;;;;;6163942;28;20149;-66
2022/10/09 12:27:39;;;;;;;12.73;5.63;;;;;;;;;;6162790;28;20047;-67
2022/10/09 12:30:40;;;;;;;12.50;5.82;;;;;;;;;;6168384;28;20050;-68
2022/10/09 12:33:46;;;;;;;13.43;5.95;;;;;;;;;;6168325;28;20051;-67
2022/10/09 12:36:47;;;;;;;14.55;5.95;;;;;;;;;;6168822;28;20101;-67
2022/10/09 12:39:48;;;;;;;12.00;5.43;;;;;;;;;;6160656;28;20444;-67
2022/10/09 12:42:51;;;;;;;10.60;5.05;;;;;;;;;;6164516;28;20157;-64
2022/10/09 12:45:52;;;;;;;14.15;5.63;;;;;;;;;;6160202;28;20518;-67
2022/10/09 12:48:53;;;;;;;12.20;5.20;;;;;;;;;;6160087;28;20104;-67
2022/10/09 12:51:55;;;;;;;9.68;4.82;;;;;;;;;;6167521;28;20510;-63
2022/10/09 12:54:57;;;;;;;10.55;4.85;;;;;;;;;;6161617;28;20053;-67
2022/10/09 12:58:03;;;;;;;10.65;5.07;;;;;;;;;;6166418;28;20043;-64
2022/10/09 13:01:09;;;;;;;14.63;5.53;;;;;;;;;;6163791;28;20137;-66
2022/10/09 13:04:52;;;;;;;10.43;5.32;;;;;;;;;;6163742;28;20047;-68
2022/10/09 13:07:53;;;;;;;12.57;5.05;;;;;;;;;;6128996;28;20047;-61
2022/10/09 13:10:54;;;;;;;12.57;5.50;;;;;;;;;;6162344;28;21396;-66
2022/10/09 13:13:55;;;;;;;13.88;5.00;;;;;;;;;;6160985;28;20050;-62
2022/10/09 13:16:55;;;;;;;12.82;4.72;;;;;;;;;;6161538;28;20066;-67
2022/10/09 13:19:59;;;;;;;10.40;4.60;;;;;;;;;;6163786;28;20049;-65
2022/10/09 13:23:03;;;;;;;11.00;5.18;;;;;;;;;;6164369;28;20109;-66
2022/10/09 13:26:04;;;;;;;9.40;5.00;;;;;;;;;;6164673;28;20082;-66
2022/10/09 13:29:06;;;;;;;13.25;4.60;;;;;;;;;;6173361;28;20059;-68
2022/10/09 13:32:10;;;;;;;11.57;4.72;;;;;;;;;;6165984;28;20051;-64
2022/10/09 13:35:11;;;;;;;10.85;4.50;;;;;;;;;;6169127;28;20462;-67
2022/10/09 13:38:16;;;;;;;12.35;4.45;;;;;;;;;;6170324;28;20082;-67
2022/10/09 13:41:20;;;;;;;10.68;4.30;;;;;;;;;;6166982;28;20068;-68
2022/10/09 13:44:21;;;;;;;8.35;4.00;;;;;;;;;;6168982;28;20133;-67
2022/10/09 13:47:22;;;;;;;10.32;4.25;;;;;;;;;;6168922;28;20053;-65
2022/10/09 13:50:22;;;;;;;9.13;4.38;;;;;;;;;;6165429;28;20513;-64
2022/10/09 13:53:23;;;;;;;16.33;4.40;;;;;;;;;;6164190;28;20047;-67
2022/10/09 13:56:24;;;;;;;13.75;4.20;;;;;;;;;;6163674;28;20046;-66
2022/10/09 13:59:26;;;;;;;7.60;3.90;;;;;;;;;;6164154;28;20137;-66
2022/10/09 14:02:26;;;;;;;11.18;3.80;;;;;;;;;;6162228;28;20450;-66
2022/10/09 14:05:27;;;;;;;7.22;4.00;;;;;;;;;;6164469;28;20166;-66
2022/10/09 14:08:28;;;;;;;8.57;3.75;;;;;;;;;;6162534;28;20054;-68
2022/10/09 14:11:29;;;;;;;8.70;3.90;;;;;;;;;;6163431;28;20046;-68
2022/10/09 14:14:29;;;;;;;9.63;4.07;;;;;;;;;;6161386;28;20145;-66
2022/10/09 14:17:30;;;;;;;11.38;4.10;;;;;;;;;;6165338;28;20078;-66
2022/10/09 14:20:32;;;;;;;9.23;4.00;;;;;;;;;;6165924;28;20045;-65
2022/10/09 14:23:32;;;;;;;10.05;3.92;;;;;;;;;;6162602;28;20058;-67
2022/10/09 14:26:33;;;;;;;8.82;4.20;;;;;;;;;;6165271;28;20072;-67
2022/10/09 14:29:33;;;;;;;8.57;4.20;;;;;;;;;;6165100;28;20061;-64
2022/10/09 14:32:34;;;;;;;8.57;3.97;;;;;;;;;;6161960;28;20446;-67
2022/10/09 14:35:35;;;;;;;9.02;3.85;;;;;;;;;;6165064;28;20089;-65
2022/10/09 14:38:36;;;;;;;9.57;3.67;;;;;;;;;;6163940;28;20145;-66
2022/10/09 14:41:37;;;;;;;13.15;3.92;;;;;;;;;;6167509;28;20086;-66
2022/10/09 14:44:37;;;;;;;8.32;4.03;;;;;;;;;;6171053;28;20058;-65
2022/10/09 14:47:38;;;;;;;11.32;3.83;;;;;;;;;;6171253;28;20142;-67
2022/10/09 14:50:38;;;;;;;11.95;4.15;;;;;;;;;;6168075;28;20343;-69
2022/10/09 14:53:39;;;;;;;8.27;4.22;;;;;;;;;;6167728;28;20054;-66
2022/10/09 14:56:40;;;;;;;11.23;3.70;;;;;;;;;;6163914;28;20039;-65
2022/10/09 14:59:40;;;;;;;8.27;3.90;;;;;;;;;;6160236;28;20081;-65
2022/10/09 15:02:41;;;;;;;11.25;4.05;;;;;;;;;;6150266;28;20133;-65
2022/10/09 15:05:41;;;;;;;13.88;4.18;;;;;;;;;;6158821;28;20065;-66
2022/10/09 15:08:43;;;;;;;11.57;4.10;;;;;;;;;;6152845;28;20063;-65
2022/10/09 15:11:43;;;;;;;9.07;4.18;;;;;;;;;;6152421;28;20829;-54
2022/10/09 15:14:45;;;;;;;10.13;4.25;;;;;;;;;;6158942;28;20063;-60
2022/10/09 15:17:45;;;;;;;9.60;4.15;;;;;;;;;;6157907;28;20129;-64
2022/10/09 15:20:46;;;;;;;14.57;4.93;;;;;;;;;;6159037;28;20538;-60
2022/10/09 15:23:48;;;;;;;12.95;3.92;;;;;;;;;;6157769;28;20055;-66
2022/10/09 15:26:48;;;;;;;8.00;4.32;;;;;;;;;;6160422;28;20062;-58
2022/10/09 15:29:49;;;;;;;10.15;4.13;;;;;;;;;;6160889;28;20058;-60
2022/10/09 15:32:49;;;;;;;9.40;4.35;;;;;;;;;;6156340;28;20112;-60
2022/10/09 15:35:51;;;;;;;18.52;5.45;;;;;;;;;;6160357;28;20055;-62
2022/10/09 15:38:52;;;;;;;9.57;3.97;;;;;;;;;;6158028;28;20518;-61
2022/10/09 15:41:53;;;;;;;14.32;4.35;;;;;;;;;;6155036;28;20047;-60
2022/10/09 15:44:53;;;;;;;10.55;4.10;;;;;;;;;;6158255;28;20118;-60
2022/10/09 15:47:54;;;;;;;9.60;3.83;;;;;;;;;;6157775;28;20039;-61
2022/10/09 15:50:54;;;;;;;13.93;4.25;;;;;;;;;;6156690;28;20105;-60
2022/10/09 15:53:57;;;;;;;11.77;4.25;;;;;;;;;;6156584;28;20116;-61
2022/10/09 15:56:58;;;;;;;9.20;4.15;;;;;;;;;;6160541;28;20051;-62
2022/10/09 15:59:59;;;;;;;15.93;5.38;;;;;;;;;;6159807;28;20430;-61
2022/10/09 16:02:59;;;;;;;10.40;4.72;;;;;;;;;;6155729;28;20054;-59
2022/10/09 16:06:01;;;;;;;9.55;4.85;;;;;;;;;;6159162;28;20038;-60
2022/10/09 16:09:03;;;;;;;7.85;4.20;;;;;;;;;;6159512;28;20952;-61
2022/10/09 16:12:04;;;;;;;11.70;4.43;;;;;;;;;;6154488;28;20050;-61
2022/10/09 16:15:05;;;;;;;10.00;4.40;;;;;;;;;;6157203;28;20050;-61
2022/10/09 16:18:05;;;;;;;11.60;5.43;;;;;;;;;;6158184;28;20046;-60
2022/10/09 16:21:20;;;;;;;12.68;5.53;;;;;;;;;;6298961;28;20690;-63
2022/10/09 16:24:21;;;;;;;12.07;4.45;;;;;;;;;;6304127;28;20074;-61
2022/10/09 16:27:21;;;;;;;9.60;4.93;;;;;;;;;;6301693;28;20051;-62
2022/10/09 16:30:22;;;;;;;11.98;4.75;;;;;;;;;;6303557;28;20131;-63
2022/10/09 16:33:23;;;;;;;12.77;5.25;;;;;;;;;;6300968;28;20040;-63
2022/10/09 16:36:24;;;;;;;13.07;5.65;;;;;;;;;;6301712;28;20051;-64
2022/10/09 16:39:24;;;;;;;18.85;7.03;;;;;;;;;;6301900;28;20052;-62
2022/10/09 16:42:25;;;;;;;16.15;6.68;;;;;;;;;;6300615;28;20048;-62
2022/10/09 16:45:26;;;;;;;16.55;6.85;;;;;;;;;;6301404;28;20052;-62
2022/10/09 16:48:28;;;;;;;14.85;7.20;;;;;;;;;;6300943;28;20545;-66
2022/10/09 16:51:34;;;;;;;15.82;6.45;;;;;;;;;;6297511;28;20048;-61
2022/10/09 16:54:34;;;;;;;17.23;6.13;;;;;;;;;;6299642;28;20048;-64
2022/10/09 16:57:35;;;;;;;16.55;7.55;;;;;;;;;;6302081;28;20077;-60
2022/10/09 17:00:35;;;;;;;18.02;6.97;;;;;;;;;;6299705;28;20087;-62
2022/10/09 17:03:41;;;;;;;18.83;7.60;;;;;;;;;;6297979;28;20215;-68
2022/10/09 17:06:43;;;;;;;17.27;7.15;;;;;;;;;;6301129;28;21032;-61
2022/10/09 17:09:43;;;;;;;20.40;7.97;;;;;;;;;;6298387;28;20640;-63
2022/10/09 17:12:45;;;;;;;20.40;7.30;;;;;;;;;;6297467;28;20120;-64
2022/10/09 17:15:45;;;;;;;17.27;7.13;;;;;;;;;;6300179;28;20052;-63
2022/10/09 17:18:47;;;;;;;18.05;6.80;;;;;;;;;;6295709;28;20180;-64
2022/10/09 17:21:48;;;;;;;19.25;8.40;;;;;;;;;;6295089;28;20160;-64
2022/10/09 17:24:48;;;;;;;27.50;9.40;;;;;;;;;;6295777;28;20052;-63
2022/10/09 17:27:49;;;;;;;50.70;17.95;;;;;;;;;;6295661;28;20430;-62
2022/10/09 17:30:50;;;;;;;54.42;18.40;;;;;;;;;;6287578;28;20122;-63
2022/10/09 17:33:57;;;;;;;47.72;18.83;;;;;;;;;;6280204;28;20127;-61
2022/10/09 17:36:57;;;;;;;68.13;26.25;;;;;;;;;;6284557;28;20049;-62
2022/10/09 17:39:59;;;;;;;282.83;73.28;;;;;;;;;;6282398;28;20044;-63
2022/10/09 17:43:00;;;;;;;350.67;84.97;;;;;;;;;;6279989;28;20056;-61
2022/10/09 17:46:00;;;;;;;184.98;45.45;;;;;;;;;;6284878;28;20134;-63
2022/10/09 17:49:01;;;;;;;535.20;135.60;;;;;;;;;;6282019;28;20049;-62
2022/10/09 17:52:02;;;;;;;409.98;97.43;;;;;;;;;;6281899;28;20053;-60
2022/10/09 17:55:03;;;;;;;223.35;57.72;;;;;;;;;;6283100;28;20037;-60
2022/10/09 17:58:04;;;;;;;156.90;45.85;;;;;;;;;;6282029;28;20055;-61
2022/10/09 18:01:06;;;;;;;115.80;36.08;;;;;;;;;;6277798;28;20056;-64